Time;durP1;ratioP1;P1;durP2;ratioP2;P2;SDS_P1;SDS_P2;PMS_P1;PMS_P2;Temp;Humidity;BMP_temperature;BMP_pressure;BME280_temperature;BME280_humidity;BME280_pressure;Samples;Min_cycle;Max_cycle;Signal;HPM_P1;HPM_P2
2023/03/14 00:01:48;;;;;;;32.58;5.55;;;8.80;99.90;;;;;;4957857;28;20061;-83
2023/03/14 00:04:14;;;;;;;30.58;6.13;;;8.90;99.90;;;;;;4973561;28;20501;-83
2023/03/14 00:06:40;;;;;;;35.45;5.18;;;8.90;99.90;;;;;;4973187;28;20569;-83
2023/03/14 00:09:06;;;;;;;29.08;6.47;;;9.00;99.90;;;;;;4953000;28;20051;-83
2023/03/14 00:11:34;;;;;;;31.27;5.90;;;9.00;99.90;;;;;;4937959;28;20046;-82
2023/03/14 00:13:59;;;;;;;29.95;5.65;;;9.10;99.90;;;;;;4939305;28;20053;-83
2023/03/14 00:16:26;;;;;;;31.75;5.47;;;9.10;99.90;;;;;;4938989;28;20051;-83
2023/03/14 00:18:52;;;;;;;33.58;5.47;;;9.20;99.90;;;;;;4969702;28;20051;-83
2023/03/14 00:21:19;;;;;;;31.00;4.82;;;9.20;99.90;;;;;;4937804;28;20149;-83
2023/03/14 00:23:45;;;;;;;28.65;5.22;;;9.30;99.90;;;;;;4938392;28;20047;-82
2023/03/14 00:26:13;;;;;;;31.80;4.82;;;9.40;99.90;;;;;;4953784;28;20149;-83
2023/03/14 00:28:40;;;;;;;33.97;5.20;;;9.40;99.90;;;;;;4938571;28;20035;-83
2023/03/14 00:31:07;;;;;;;26.23;5.00;;;9.50;99.90;;;;;;4937990;28;20034;-83
2023/03/14 00:33:33;;;;;;;31.52;5.30;;;9.50;99.90;;;;;;4938516;28;20054;-82
2023/03/14 00:36:02;;;;;;;28.75;6.00;;;9.50;99.90;;;;;;4937398;28;20046;-82
2023/03/14 00:38:29;;;;;;;28.58;4.90;;;9.50;99.90;;;;;;4938058;28;20047;-83
2023/03/14 00:40:55;;;;;;;31.88;6.60;;;9.50;99.90;;;;;;4937600;28;20047;-83
2023/03/14 00:43:22;;;;;;;29.60;5.45;;;9.50;99.90;;;;;;4938285;28;20059;-83
2023/03/14 00:45:50;;;;;;;22.35;4.65;;;9.50;99.90;;;;;;4937476;28;20399;-82
2023/03/14 00:48:17;;;;;;;30.63;4.90;;;9.40;99.90;;;;;;4954497;28;20046;-83
2023/03/14 00:50:43;;;;;;;22.85;4.88;;;9.40;99.90;;;;;;4953221;28;20046;-82
2023/03/14 00:53:09;;;;;;;26.30;5.03;;;9.40;99.90;;;;;;4952834;28;20102;-82
2023/03/14 00:55:37;;;;;;;30.50;5.55;;;9.40;99.90;;;;;;4954081;28;20070;-82
2023/03/14 00:58:03;;;;;;;22.20;4.68;;;9.40;99.90;;;;;;4937588;28;20038;-82
2023/03/14 01:00:29;;;;;;;33.03;5.65;;;9.40;99.90;;;;;;4937342;28;20113;-82
2023/03/14 01:02:55;;;;;;;26.95;4.88;;;9.40;99.90;;;;;;4953936;28;20046;-82
2023/03/14 01:05:22;;;;;;;27.65;4.93;;;9.40;99.90;;;;;;4936760;28;20418;-82
2023/03/14 01:07:48;;;;;;;26.00;5.00;;;9.40;99.90;;;;;;4936937;28;20117;-82
2023/03/14 01:10:13;;;;;;;23.65;5.40;;;9.40;99.90;;;;;;4936781;28;20038;-82
2023/03/14 01:12:39;;;;;;;22.75;4.10;;;9.40;99.90;;;;;;4938285;28;20051;-82
2023/03/14 01:15:05;;;;;;;29.05;5.28;;;9.40;99.90;;;;;;4968311;28;20042;-82
2023/03/14 01:17:31;;;;;;;31.98;5.70;;;9.40;99.90;;;;;;4937725;28;20090;-82
2023/03/14 01:19:57;;;;;;;23.85;4.10;;;9.40;99.90;;;;;;4936712;28;20093;-82
2023/03/14 01:22:23;;;;;;;28.25;4.57;;;9.40;99.90;;;;;;4936601;28;20046;-82
2023/03/14 01:24:48;;;;;;;27.10;4.63;;;9.50;99.90;;;;;;4937287;28;20502;-82
2023/03/14 01:27:14;;;;;;;20.77;4.07;;;9.50;99.90;;;;;;4953290;28;20134;-82
2023/03/14 01:29:40;;;;;;;22.17;4.55;;;9.60;99.90;;;;;;4952819;28;20043;-82
2023/03/14 01:32:05;;;;;;;24.23;4.22;;;9.60;99.90;;;;;;4969223;28;20320;-83
2023/03/14 01:34:31;;;;;;;24.00;4.32;;;9.60;99.90;;;;;;4952446;28;20046;-83
2023/03/14 01:36:57;;;;;;;23.05;4.35;;;9.70;99.90;;;;;;4936579;28;20043;-83
2023/03/14 01:39:22;;;;;;;20.20;3.05;;;9.70;99.90;;;;;;4936984;28;20135;-82
2023/03/14 01:41:48;;;;;;;22.60;4.05;;;9.80;99.90;;;;;;4935931;28;20572;-82
2023/03/14 01:44:14;;;;;;;26.02;3.97;;;9.80;99.90;;;;;;4937597;28;20046;-83
2023/03/14 01:46:46;;;;;;;25.20;4.43;;;9.80;99.90;;;;;;4936504;28;20043;-83
2023/03/14 01:49:31;;;;;;;21.48;4.03;;;9.90;99.90;;;;;;4936502;28;20081;-82
2023/03/14 01:52:11;;;;;;;22.27;3.90;;;9.90;99.90;;;;;;4936352;28;20054;-83
2023/03/14 01:54:42;;;;;;;21.13;3.45;;;9.90;99.90;;;;;;4936989;28;20485;-82
2023/03/14 01:57:12;;;;;;;23.27;4.03;;;9.90;99.90;;;;;;4952423;28;20042;-83
2023/03/14 01:59:40;;;;;;;23.42;4.43;;;9.90;99.90;;;;;;4936509;28;20126;-82
2023/03/14 02:02:09;;;;;;;19.65;4.10;;;9.90;99.90;;;;;;4936664;28;20134;-83
2023/03/14 02:04:38;;;;;;;26.25;3.97;;;9.90;99.90;;;;;;4935962;28;20085;-83
2023/03/14 02:07:13;;;;;;;16.08;3.72;;;9.90;99.90;;;;;;4936000;28;20057;-83
2023/03/14 02:09:41;;;;;;;18.15;4.03;;;9.90;99.90;;;;;;4951433;28;20125;-82
2023/03/14 02:12:08;;;;;;;23.88;3.50;;;9.90;99.90;;;;;;4936495;28;20430;-84
2023/03/14 02:14:36;;;;;;;20.05;4.22;;;9.90;99.90;;;;;;4936513;28;20113;-83
2023/03/14 02:17:04;;;;;;;23.25;3.53;;;9.90;99.90;;;;;;4935879;28;20410;-83
2023/03/14 02:19:36;;;;;;;27.08;3.45;;;9.80;99.90;;;;;;4952578;28;20130;-82
2023/03/14 02:22:11;;;;;;;20.30;3.40;;;9.80;99.90;;;;;;4935865;28;20069;-82
2023/03/14 02:25:07;;;;;;;22.00;3.90;;;9.80;99.90;;;;;;4935746;28;20127;-82
2023/03/14 02:27:33;;;;;;;17.95;3.03;;;9.70;99.90;;;;;;4935945;28;20042;-81
2023/03/14 02:30:05;;;;;;;18.95;3.72;;;9.70;99.90;;;;;;4952517;28;20058;-82
2023/03/14 02:32:34;;;;;;;17.92;3.65;;;9.60;99.90;;;;;;4935501;28;20105;-82
2023/03/14 02:35:06;;;;;;;18.83;3.20;;;9.60;99.90;;;;;;4935793;28;20443;-82
2023/03/14 02:37:45;;;;;;;20.30;3.67;;;9.60;99.90;;;;;;4935962;28;20050;-83
2023/03/14 02:40:11;;;;;;;15.15;3.20;;;9.50;99.90;;;;;;4951768;28;20533;-83
2023/03/14 02:42:37;;;;;;;19.92;3.90;;;9.50;99.90;;;;;;4936167;28;20090;-82
2023/03/14 02:45:09;;;;;;;17.80;3.83;;;9.50;99.90;;;;;;4951198;28;20058;-82
2023/03/14 02:47:41;;;;;;;17.20;2.58;;;9.50;99.90;;;;;;4936008;28;20039;-82
2023/03/14 02:50:12;;;;;;;20.13;3.05;;;9.50;99.90;;;;;;4933901;28;20051;-82
2023/03/14 02:52:38;;;;;;;19.80;3.08;;;9.50;99.90;;;;;;4935512;28;20046;-82
2023/03/14 02:55:04;;;;;;;11.38;2.50;;;9.50;99.90;;;;;;4935740;28;20051;-83
2023/03/14 02:57:30;;;;;;;17.52;3.30;;;9.50;99.90;;;;;;4946888;28;20042;-83
2023/03/14 03:00:00;;;;;;;12.38;3.40;;;9.50;99.90;;;;;;4970596;28;20054;-82
2023/03/14 03:02:27;;;;;;;17.90;3.03;;;9.50;99.90;;;;;;4971539;28;20077;-83
2023/03/14 03:04:52;;;;;;;16.48;3.45;;;9.40;99.90;;;;;;4970348;28;20047;-83
2023/03/14 03:07:19;;;;;;;19.33;3.50;;;9.40;99.90;;;;;;4969843;28;20402;-82
2023/03/14 03:09:44;;;;;;;17.90;2.75;;;9.30;99.90;;;;;;4960897;28;20097;-83
2023/03/14 03:12:10;;;;;;;13.90;2.35;;;9.30;99.90;;;;;;4936003;28;20071;-83
2023/03/14 03:14:37;;;;;;;10.45;2.83;;;9.30;99.90;;;;;;4935848;28;20043;-83
2023/03/14 03:17:04;;;;;;;16.65;2.97;;;9.30;99.90;;;;;;4952246;28;20143;-82
2023/03/14 03:19:30;;;;;;;17.02;2.85;;;9.30;99.90;;;;;;4952420;28;20046;-82
2023/03/14 03:21:57;;;;;;;17.50;2.97;;;9.20;99.90;;;;;;4934799;28;20043;-83
2023/03/14 03:24:24;;;;;;;17.80;3.80;;;9.20;99.90;;;;;;4935687;28;20046;-83
2023/03/14 03:26:49;;;;;;;16.55;3.25;;;9.20;99.90;;;;;;4935884;28;20047;-82
2023/03/14 03:29:15;;;;;;;14.10;3.55;;;9.10;99.90;;;;;;4935364;28;20039;-82
2023/03/14 03:31:41;;;;;;;17.52;2.92;;;9.10;99.90;;;;;;4935688;28;20506;-83
2023/03/14 03:34:06;;;;;;;14.90;3.00;;;9.00;99.90;;;;;;4935074;28;20047;-83
2023/03/14 03:36:32;;;;;;;14.05;3.08;;;9.00;99.90;;;;;;4950338;28;20129;-83
2023/03/14 03:38:58;;;;;;;15.32;3.33;;;8.90;99.90;;;;;;4952160;28;20451;-82
2023/03/14 03:41:24;;;;;;;18.02;3.58;;;8.90;99.90;;;;;;4934405;28;20862;-82
2023/03/14 03:43:50;;;;;;;21.30;3.80;;;8.90;99.90;;;;;;4951356;28;20094;-82
2023/03/14 03:46:15;;;;;;;11.98;3.22;;;8.80;99.90;;;;;;4951200;28;20090;-83
2023/03/14 03:48:41;;;;;;;21.83;3.63;;;8.80;99.90;;;;;;4950727;28;20056;-83
2023/03/14 03:51:07;;;;;;;16.20;3.83;;;8.80;99.90;;;;;;4934716;28;20050;-83
2023/03/14 03:53:32;;;;;;;19.02;3.70;;;8.80;99.90;;;;;;4951246;28;20047;-83
2023/03/14 03:55:58;;;;;;;13.30;3.60;;;8.80;99.90;;;;;;4967069;28;20065;-82
2023/03/14 03:58:24;;;;;;;19.30;3.90;;;8.80;99.90;;;;;;4951795;28;20113;-83
2023/03/14 04:00:49;;;;;;;16.08;3.88;;;8.80;99.90;;;;;;4951199;28;20487;-82
2023/03/14 04:03:15;;;;;;;19.77;4.15;;;8.80;99.90;;;;;;4954250;28;20039;-83
2023/03/14 04:05:41;;;;;;;18.52;4.03;;;8.80;99.90;;;;;;4938223;28;20053;-83
2023/03/14 04:08:06;;;;;;;25.75;4.28;;;8.80;99.90;;;;;;4938584;28;20043;-82
2023/03/14 04:10:36;;;;;;;20.88;4.32;;;8.80;99.90;;;;;;4953548;28;20057;-82
2023/03/14 04:13:01;;;;;;;21.42;4.47;;;8.80;99.90;;;;;;4970685;28;20118;-82
2023/03/14 04:15:27;;;;;;;23.33;4.18;;;8.80;99.90;;;;;;4938647;28;20491;-82
2023/03/14 04:17:58;;;;;;;20.40;4.47;;;8.80;99.90;;;;;;4937442;28;20039;-83
2023/03/14 04:20:23;;;;;;;26.23;4.85;;;8.80;99.90;;;;;;4937775;28;20467;-83
2023/03/14 04:22:49;;;;;;;31.00;4.85;;;8.80;99.90;;;;;;4954243;28;20134;-82
2023/03/14 04:25:17;;;;;;;19.58;5.35;;;8.80;99.90;;;;;;4937649;28;20062;-82
2023/03/14 04:27:42;;;;;;;26.42;5.35;;;8.80;99.90;;;;;;4938427;28;20042;-82
2023/03/14 04:30:09;;;;;;;23.58;5.15;;;8.80;99.90;;;;;;4953930;28;20073;-83
2023/03/14 04:32:34;;;;;;;25.90;5.45;;;8.80;99.90;;;;;;4953499;28;20097;-83
2023/03/14 04:35:00;;;;;;;20.80;6.03;;;8.80;99.90;;;;;;4937402;28;20047;-82
2023/03/14 04:37:26;;;;;;;28.90;6.30;;;8.80;99.90;;;;;;4954421;28;20078;-82
2023/03/14 04:39:51;;;;;;;22.38;6.32;;;8.70;99.90;;;;;;4954029;28;20585;-82
2023/03/14 04:42:17;;;;;;;21.70;6.70;;;8.70;99.90;;;;;;4969704;28;20054;-82
2023/03/14 04:44:43;;;;;;;26.20;7.15;;;8.70;99.90;;;;;;4953414;28;20535;-83
2023/03/14 04:47:08;;;;;;;20.08;6.20;;;8.80;99.90;;;;;;4937456;28;20388;-82
2023/03/14 04:49:34;;;;;;;22.58;7.57;;;8.70;99.90;;;;;;4954240;28;20050;-82
2023/03/14 04:52:00;;;;;;;26.50;7.82;;;8.70;99.90;;;;;;4936847;28;20047;-83
2023/03/14 04:54:25;;;;;;;23.92;7.07;;;8.60;99.90;;;;;;4938217;28;20050;-83
2023/03/14 04:56:51;;;;;;;26.27;6.57;;;8.70;99.90;;;;;;4953924;28;20089;-83
2023/03/14 04:59:17;;;;;;;23.45;6.90;;;8.70;99.90;;;;;;4953227;28;20046;-84
2023/03/14 05:01:42;;;;;;;19.73;7.22;;;8.70;99.90;;;;;;4937940;28;20513;-84
2023/03/14 05:04:08;;;;;;;21.15;6.90;;;8.70;99.90;;;;;;4938308;28;20035;-84
2023/03/14 05:06:34;;;;;;;20.77;7.20;;;8.60;99.90;;;;;;4935932;28;20483;-84
2023/03/14 05:09:00;;;;;;;21.65;7.05;;;8.70;99.90;;;;;;4954216;28;20043;-85
2023/03/14 05:11:26;;;;;;;25.00;6.78;;;8.60;99.90;;;;;;4937623;28;20046;-84
2023/03/14 05:13:52;;;;;;;20.92;7.68;;;8.70;99.90;;;;;;4952643;28;20061;-84
2023/03/14 05:16:17;;;;;;;25.88;7.28;;;8.60;99.90;;;;;;4937737;28;20051;-84
2023/03/14 05:18:43;;;;;;;22.20;6.88;;;8.60;99.90;;;;;;4937722;28;20086;-84
2023/03/14 05:21:09;;;;;;;18.88;6.60;;;8.60;99.90;;;;;;4952256;28;20414;-85
2023/03/14 05:23:34;;;;;;;21.48;6.45;;;8.50;99.90;;;;;;4937904;28;20051;-85
2023/03/14 05:26:00;;;;;;;25.15;7.68;;;8.60;99.90;;;;;;4938447;28;20046;-85
2023/03/14 05:28:26;;;;;;;22.10;8.43;;;8.60;99.90;;;;;;4952707;28;20046;-87
2023/03/14 05:30:52;;;;;;;24.23;8.40;;;8.50;99.90;;;;;;4955241;28;20053;-86
2023/03/14 05:33:17;;;;;;;18.08;7.43;;;8.60;99.90;;;;;;4957084;28;20046;-85
2023/03/14 05:35:43;;;;;;;18.75;7.22;;;8.50;99.90;;;;;;4954749;28;20172;-85
2023/03/14 05:38:09;;;;;;;20.30;7.55;;;8.50;99.90;;;;;;4972723;28;20393;-84
2023/03/14 05:40:35;;;;;;;20.63;6.68;;;8.50;99.90;;;;;;4956319;28;20521;-85
2023/03/14 05:43:01;;;;;;;16.42;6.45;;;8.50;99.90;;;;;;4955679;28;20043;-85
2023/03/14 05:45:26;;;;;;;19.80;6.13;;;8.50;99.90;;;;;;4956579;28;20048;-84
2023/03/14 05:47:52;;;;;;;22.10;6.80;;;8.50;99.90;;;;;;4955554;28;20074;-85
2023/03/14 05:50:18;;;;;;;25.25;6.78;;;8.50;99.90;;;;;;4971937;28;20129;-84
2023/03/14 05:52:43;;;;;;;19.77;6.78;;;8.50;99.90;;;;;;4956518;28;20081;-84
2023/03/14 05:55:09;;;;;;;20.23;6.85;;;8.50;99.90;;;;;;4954882;28;20129;-84
2023/03/14 05:57:35;;;;;;;20.75;6.60;;;8.50;99.90;;;;;;4956299;28;20092;-85
2023/03/14 06:00:01;;;;;;;15.38;5.75;;;8.50;99.90;;;;;;4971954;28;20046;-84
2023/03/14 06:02:26;;;;;;;16.17;6.22;;;8.50;99.90;;;;;;4955370;28;20043;-84
2023/03/14 06:04:52;;;;;;;16.92;6.18;;;8.50;99.90;;;;;;4955503;28;20125;-85
2023/03/14 06:07:18;;;;;;;15.05;5.07;;;8.50;99.90;;;;;;4955954;28;20057;-85
2023/03/14 06:09:44;;;;;;;11.43;4.65;;;8.50;99.90;;;;;;4960929;28;20521;-84
2023/03/14 06:12:09;;;;;;;13.68;4.65;;;8.50;99.90;;;;;;4936849;28;20090;-84
2023/03/14 06:14:35;;;;;;;11.13;3.65;;;8.50;99.90;;;;;;4936312;28;20043;-85
2023/03/14 06:17:01;;;;;;;10.82;3.40;;;8.50;99.90;;;;;;4936118;28;20097;-84
2023/03/14 06:19:26;;;;;;;7.88;3.20;;;8.50;99.90;;;;;;4952922;28;20042;-85
2023/03/14 06:21:52;;;;;;;11.82;4.00;;;8.50;99.90;;;;;;4952066;28;20513;-85
2023/03/14 06:24:18;;;;;;;10.32;4.30;;;8.50;99.90;;;;;;4936275;28;20038;-84
2023/03/14 06:26:43;;;;;;;15.63;4.68;;;8.50;99.90;;;;;;4936016;28;20494;-85
2023/03/14 06:29:10;;;;;;;11.38;5.25;;;8.50;99.90;;;;;;4936755;28;20043;-85
2023/03/14 06:31:36;;;;;;;11.43;3.85;;;8.50;99.90;;;;;;4935295;28;20554;-85
2023/03/14 06:34:01;;;;;;;22.42;4.45;;;8.50;99.90;;;;;;4952553;28;20359;-84
2023/03/14 06:36:27;;;;;;;12.95;1.60;;;8.50;99.90;;;;;;4942764;28;20061;-86
2023/03/14 06:38:53;;;;;;;9.18;0.85;;;8.20;99.90;;;;;;4962901;28;20046;-86
2023/03/14 06:41:18;;;;;;;7.53;0.98;;;8.00;99.90;;;;;;4963532;28;20631;-86
2023/03/14 06:43:44;;;;;;;13.18;1.45;;;7.70;99.90;;;;;;4953101;28;20054;-86
2023/03/14 06:46:10;;;;;;;13.73;1.58;;;7.40;99.90;;;;;;4946231;28;20051;-86
2023/03/14 06:48:36;;;;;;;18.10;2.35;;;7.20;99.90;;;;;;4962965;28;20038;-86
2023/03/14 06:51:01;;;;;;;19.48;2.45;;;7.00;99.90;;;;;;4945306;28;20049;-86
2023/03/14 06:53:27;;;;;;;25.80;2.83;;;6.90;99.90;;;;;;4961307;28;20388;-87
2023/03/14 06:55:53;;;;;;;19.67;2.10;;;6.80;99.90;;;;;;4960892;28;20030;-86
2023/03/14 06:58:19;;;;;;;23.40;2.53;;;6.60;99.90;;;;;;4945857;28;20133;-86
2023/03/14 07:00:44;;;;;;;24.55;2.72;;;6.50;99.90;;;;;;4944754;28;20043;-86
2023/03/14 07:03:14;;;;;;;27.33;3.08;;;6.20;99.90;;;;;;4964413;28;20045;-86
2023/03/14 07:05:41;;;;;;;19.25;2.53;;;6.00;99.90;;;;;;4954614;28;20873;-85
2023/03/14 07:08:07;;;;;;;16.50;1.92;;;5.80;99.90;;;;;;4971401;28;20042;-86
2023/03/14 07:10:33;;;;;;;17.27;1.88;;;5.60;99.90;;;;;;4941575;28;20121;-85
2023/03/14 07:12:59;;;;;;;16.92;2.05;;;5.50;99.90;;;;;;4935913;28;20491;-85
2023/03/14 07:15:25;;;;;;;19.92;2.20;;;5.30;99.90;;;;;;4936866;28;20046;-86
2023/03/14 07:17:50;;;;;;;12.38;1.50;;;5.10;99.90;;;;;;4936978;28;20027;-85
2023/03/14 07:20:16;;;;;;;12.60;1.30;;;5.00;99.90;;;;;;4944296;28;20047;-85
2023/03/14 07:22:42;;;;;;;11.32;1.08;;;5.10;99.90;;;;;;4971422;28;20108;-85
2023/03/14 07:25:11;;;;;;;10.60;1.20;;;4.70;99.90;;;;;;4955064;28;20038;-85
2023/03/14 07:27:37;;;;;;;9.88;1.00;;;4.60;99.90;;;;;;4955051;28;20058;-85
2023/03/14 07:30:03;;;;;;;16.35;1.25;;;4.50;99.90;;;;;;4971603;28;20046;-85
2023/03/14 07:32:29;;;;;;;6.93;0.82;;;4.50;99.90;;;;;;4971341;28;20046;-86
2023/03/14 07:34:55;;;;;;;6.07;0.88;;;4.40;99.90;;;;;;4948467;28;20133;-85
2023/03/14 07:37:20;;;;;;;4.45;0.57;;;4.60;99.90;;;;;;4957889;28;20045;-87
2023/03/14 07:39:46;;;;;;;9.00;0.63;;;4.40;99.90;;;;;;4974913;28;20097;-86
2023/03/14 07:42:12;;;;;;;3.33;0.30;;;4.60;99.90;;;;;;4971149;28;20051;-86
2023/03/14 07:44:37;;;;;;;5.13;0.95;;;4.60;99.90;;;;;;4987858;28;20578;-86
2023/03/14 07:47:03;;;;;;;5.72;0.50;;;4.30;99.90;;;;;;4939974;28;20050;-86
2023/03/14 07:49:29;;;;;;;7.20;0.88;;;4.10;99.90;;;;;;4939324;28;20138;-85
2023/03/14 07:51:55;;;;;;;5.35;0.60;;;4.70;99.90;;;;;;4940400;28;20129;-86
2023/03/14 07:54:20;;;;;;;5.43;0.60;;;4.10;99.90;;;;;;4940392;28;20050;-85
2023/03/14 07:56:46;;;;;;;6.68;1.23;;;4.20;99.90;;;;;;4940351;28;20042;-86
2023/03/14 07:59:12;;;;;;;6.30;1.00;;;4.20;99.90;;;;;;4940805;28;20137;-87
2023/03/14 08:01:38;;;;;;;5.15;0.80;;;4.50;99.90;;;;;;4939475;28;20043;-86
2023/03/14 08:04:04;;;;;;;9.43;0.73;;;4.40;99.90;;;;;;4956595;28;20043;-86
2023/03/14 08:06:30;;;;;;;7.05;0.75;;;4.10;99.90;;;;;;4940120;28;20043;-87
2023/03/14 08:08:55;;;;;;;9.65;0.95;;;4.40;99.90;;;;;;4965531;28;20486;-85
2023/03/14 08:11:21;;;;;;;3.38;1.23;;;4.60;99.90;;;;;;4920154;29;20058;-86
2023/03/14 08:13:49;;;;;;;10.20;0.80;;;4.30;99.90;;;;;;4920277;29;20036;-86
2023/03/14 08:16:17;;;;;;;5.50;0.88;;;4.40;99.90;;;;;;4935047;29;20514;-85
2023/03/14 08:18:43;;;;;;;9.65;0.70;;;4.40;99.90;;;;;;4920133;29;20055;-86
2023/03/14 08:21:08;;;;;;;6.60;1.00;;;4.80;99.90;;;;;;4919679;29;20043;-85
2023/03/14 08:23:34;;;;;;;10.57;0.85;;;4.80;99.90;;;;;;4919715;29;20055;-86
2023/03/14 08:26:00;;;;;;;9.75;1.38;;;4.80;99.90;;;;;;4919924;29;20047;-86
2023/03/14 08:28:30;;;;;;;9.38;1.27;;;4.70;99.90;;;;;;4920332;29;20122;-86
2023/03/14 08:30:57;;;;;;;8.68;0.65;;;5.40;99.90;;;;;;4918634;29;20106;-85
2023/03/14 08:33:23;;;;;;;8.27;1.25;;;5.40;99.90;;;;;;4935638;29;20466;-85
2023/03/14 08:35:52;;;;;;;8.73;1.02;;;5.50;99.90;;;;;;4918730;29;20134;-85
2023/03/14 08:38:18;;;;;;;9.93;1.05;;;5.20;99.90;;;;;;4934957;29;20047;-85
2023/03/14 08:40:43;;;;;;;11.10;1.30;;;5.30;99.90;;;;;;4937189;29;20155;-85
2023/03/14 08:43:09;;;;;;;11.57;1.30;;;5.20;99.90;;;;;;4931849;28;20051;-86
2023/03/14 08:45:35;;;;;;;12.15;1.60;;;5.40;99.90;;;;;;4937520;28;20490;-85
2023/03/14 08:48:00;;;;;;;10.38;1.05;;;5.90;99.90;;;;;;4938709;28;20067;-85
2023/03/14 08:50:26;;;;;;;11.20;2.50;;;5.50;99.90;;;;;;4953928;28;20054;-85
2023/03/14 08:52:52;;;;;;;11.73;1.75;;;5.60;99.90;;;;;;4953671;28;20059;-86
2023/03/14 08:55:18;;;;;;;13.60;1.67;;;5.60;99.90;;;;;;4953565;28;20097;-85
2023/03/14 08:57:44;;;;;;;12.93;1.80;;;5.70;99.90;;;;;;4953727;28;20046;-86
2023/03/14 09:00:15;;;;;;;18.42;2.40;;;5.80;99.90;;;;;;4937521;28;20477;-85
2023/03/14 09:02:42;;;;;;;21.73;2.58;;;5.80;99.90;;;;;;4938198;28;20046;-86
2023/03/14 09:05:08;;;;;;;17.13;2.40;;;5.70;99.90;;;;;;4951807;28;20046;-86
2023/03/14 09:07:34;;;;;;;19.70;2.90;;;5.80;99.90;;;;;;4970127;28;20046;-85
2023/03/14 09:10:00;;;;;;;16.00;2.70;;;5.80;99.90;;;;;;4938163;28;20042;-86
2023/03/14 09:12:25;;;;;;;18.85;3.20;;;6.10;99.90;;;;;;4937259;28;20046;-85
2023/03/14 09:14:51;;;;;;;17.05;2.88;;;5.90;99.90;;;;;;4953921;28;20068;-85
2023/03/14 09:17:17;;;;;;;28.35;3.53;;;6.10;99.90;;;;;;4937383;28;20383;-84
2023/03/14 09:19:42;;;;;;;18.23;2.80;;;6.20;99.90;;;;;;4969815;28;20042;-85
2023/03/14 09:22:08;;;;;;;22.40;3.42;;;6.00;99.90;;;;;;4953653;28;20403;-85
2023/03/14 09:24:34;;;;;;;18.90;3.15;;;6.20;99.90;;;;;;4969674;28;20064;-87
2023/03/14 09:26:59;;;;;;;33.33;4.70;;;6.30;99.90;;;;;;4937465;28;20045;-85
2023/03/14 09:29:25;;;;;;;21.05;2.83;;;6.40;99.90;;;;;;4937133;28;20082;-85
2023/03/14 09:31:51;;;;;;;23.40;3.17;;;6.40;99.90;;;;;;4969219;28;21004;-85
2023/03/14 09:34:17;;;;;;;27.63;3.90;;;6.30;99.90;;;;;;4936813;28;20050;-85
2023/03/14 09:36:44;;;;;;;28.45;4.28;;;6.30;99.90;;;;;;4952250;28;20050;-86
2023/03/14 09:39:11;;;;;;;23.00;3.63;;;6.20;99.90;;;;;;4953432;28;20057;-84
2023/03/14 09:41:42;;;;;;;30.40;3.70;;;6.10;99.90;;;;;;4936168;28;20039;-85
2023/03/14 09:44:15;;;;;;;35.15;4.10;;;6.10;99.90;;;;;;4937542;28;20399;-85
2023/03/14 09:46:44;;;;;;;35.15;5.35;;;6.20;99.90;;;;;;4953113;28;20047;-85
2023/03/14 09:49:21;;;;;;;23.95;2.97;;;6.30;99.90;;;;;;4937037;28;20043;-85
2023/03/14 09:51:51;;;;;;;24.90;3.92;;;6.40;99.90;;;;;;4936193;28;20058;-85
2023/03/14 09:54:30;;;;;;;23.55;3.08;;;6.50;99.90;;;;;;4935909;28;20043;-85
2023/03/14 09:56:55;;;;;;;19.00;3.03;;;6.60;99.90;;;;;;4936535;28;20050;-85
2023/03/14 09:59:21;;;;;;;26.85;3.72;;;6.60;99.90;;;;;;4952857;28;20386;-85
2023/03/14 10:01:47;;;;;;;22.92;3.35;;;6.70;99.90;;;;;;4952007;28;20406;-84
2023/03/14 10:04:17;;;;;;;21.40;3.03;;;6.90;99.90;;;;;;4952569;28;20042;-85
2023/03/14 10:06:43;;;;;;;26.27;3.72;;;7.00;99.90;;;;;;4935858;28;20553;-85
2023/03/14 10:09:19;;;;;;;21.05;3.00;;;6.70;99.90;;;;;;4941422;28;20043;-85
2023/03/14 10:11:45;;;;;;;25.20;3.85;;;6.70;99.90;;;;;;4955483;28;20046;-85
2023/03/14 10:14:13;;;;;;;22.33;3.33;;;6.60;99.90;;;;;;4972230;28;20054;-85
2023/03/14 10:16:44;;;;;;;32.42;4.82;;;6.50;99.90;;;;;;4955086;28;20392;-85
2023/03/14 10:19:14;;;;;;;25.00;3.97;;;6.50;99.90;;;;;;4956245;28;20093;-85
2023/03/14 10:21:43;;;;;;;20.98;3.40;;;6.50;99.90;;;;;;4970441;28;20100;-84
2023/03/14 10:24:18;;;;;;;24.80;3.60;;;6.80;99.90;;;;;;4971239;28;20034;-84
2023/03/14 10:26:49;;;;;;;29.50;3.78;;;6.50;99.90;;;;;;4955618;28;20046;-84
2023/03/14 10:29:16;;;;;;;24.30;3.55;;;6.50;99.90;;;;;;4970923;28;20129;-84
2023/03/14 10:31:50;;;;;;;22.42;2.65;;;6.50;99.90;;;;;;4955333;28;20545;-84
2023/03/14 10:34:21;;;;;;;15.73;3.10;;;6.60;99.90;;;;;;4971187;28;20046;-84
2023/03/14 10:36:53;;;;;;;20.83;3.08;;;6.70;99.90;;;;;;4953792;28;20057;-84
2023/03/14 10:39:25;;;;;;;19.20;2.20;;;6.50;99.90;;;;;;4970986;28;20062;-84
2023/03/14 10:41:55;;;;;;;19.38;3.20;;;6.50;99.90;;;;;;4955057;28;20088;-84
2023/03/14 10:44:24;;;;;;;21.83;3.42;;;6.50;99.90;;;;;;4954588;28;20945;-84
2023/03/14 10:47:00;;;;;;;23.38;2.70;;;6.60;99.90;;;;;;4955008;28;20138;-85
2023/03/14 10:49:30;;;;;;;15.90;2.67;;;6.40;99.90;;;;;;4955722;28;20046;-85
2023/03/14 10:52:01;;;;;;;16.17;3.03;;;6.50;99.90;;;;;;4969477;28;20042;-84
2023/03/14 10:54:30;;;;;;;18.67;2.95;;;6.60;99.90;;;;;;4971807;28;20050;-84
2023/03/14 10:56:58;;;;;;;15.35;2.20;;;6.80;99.90;;;;;;4971562;28;20405;-83
2023/03/14 10:59:24;;;;;;;18.73;2.58;;;6.90;99.90;;;;;;4955061;28;20042;-83
2023/03/14 11:02:15;;;;;;;17.02;2.40;;;7.00;99.90;;;;;;4954534;28;20043;-83
2023/03/14 11:05:11;;;;;;;18.92;2.50;;;6.90;99.90;;;;;;4970627;28;20406;-84
2023/03/14 11:07:40;;;;;;;8.20;1.58;;;6.70;99.90;;;;;;4954727;28;20081;-84
2023/03/14 11:10:30;;;;;;;13.30;2.05;;;6.60;99.90;;;;;;4954758;28;20133;-83
2023/03/14 11:13:13;;;;;;;9.77;2.00;;;6.60;99.90;;;;;;4974659;28;20085;-83
2023/03/14 11:15:57;;;;;;;12.55;1.90;;;6.70;99.90;;;;;;4974947;28;20047;-83
2023/03/14 11:18:57;;;;;;;12.07;1.75;;;6.90;99.90;;;;;;4974051;28;20050;-84
2023/03/14 11:21:35;;;;;;;14.55;1.95;;;7.10;99.90;;;;;;4957953;28;20050;-83
2023/03/14 11:24:20;;;;;;;13.35;2.00;;;7.10;99.90;;;;;;4959028;28;20089;-83
2023/03/14 11:26:56;;;;;;;13.15;1.67;;;7.00;99.90;;;;;;4974209;28;20621;-83
2023/03/14 11:29:40;;;;;;;14.80;1.30;;;7.00;99.90;;;;;;4958848;28;20506;-83
2023/03/14 11:32:16;;;;;;;8.50;1.02;;;6.80;99.90;;;;;;4958310;28;20490;-84
2023/03/14 11:34:51;;;;;;;9.60;1.23;;;6.70;99.90;;;;;;4957862;28;20046;-83
2023/03/14 11:37:25;;;;;;;5.63;1.13;;;6.80;99.90;;;;;;4974062;28;20042;-83
2023/03/14 11:40:16;;;;;;;6.18;1.23;;;6.90;99.90;;;;;;4957504;28;20038;-83
2023/03/14 11:42:46;;;;;;;8.63;1.30;;;6.90;99.90;;;;;;4957602;28;20065;-83
2023/03/14 11:45:19;;;;;;;12.65;1.63;;;7.10;99.90;;;;;;4974473;28;20050;-82
2023/03/14 11:47:48;;;;;;;17.23;1.38;;;7.10;99.90;;;;;;4957242;28;20050;-83
2023/03/14 11:50:20;;;;;;;12.95;1.67;;;7.10;99.90;;;;;;4973868;28;20046;-84
2023/03/14 11:53:03;;;;;;;9.57;1.33;;;7.10;99.90;;;;;;4958906;28;20390;-83
2023/03/14 11:55:32;;;;;;;10.45;1.10;;;7.00;99.90;;;;;;4971928;28;20681;-85
2023/03/14 11:58:14;;;;;;;11.80;1.70;;;6.90;99.90;;;;;;4956566;28;20038;-83
2023/03/14 12:00:41;;;;;;;9.75;1.67;;;7.00;99.90;;;;;;4953041;28;20459;-83
2023/03/14 12:03:21;;;;;;;10.55;1.73;;;7.30;99.90;;;;;;4958715;28;20522;-83
2023/03/14 12:06:03;;;;;;;12.73;2.65;;;7.30;99.90;;;;;;4960116;28;20049;-84
2023/03/14 12:08:39;;;;;;;9.00;1.27;;;7.50;99.90;;;;;;4969400;28;20045;-83
2023/03/14 12:11:15;;;;;;;15.52;1.77;;;7.80;99.90;;;;;;4970362;28;20046;-84
2023/03/14 12:13:47;;;;;;;12.20;1.35;;;7.90;99.90;;;;;;4973037;28;20045;-83
2023/03/14 12:16:24;;;;;;;9.98;1.30;;;7.70;99.90;;;;;;4957379;28;20367;-83
2023/03/14 12:18:52;;;;;;;10.65;2.10;;;7.40;99.90;;;;;;4954677;28;20401;-83
2023/03/14 12:21:18;;;;;;;14.45;1.70;;;7.10;99.90;;;;;;4972904;28;20379;-83
2023/03/14 12:23:49;;;;;;;14.18;1.70;;;7.00;99.90;;;;;;4957104;28;20588;-83
2023/03/14 12:26:18;;;;;;;13.35;1.60;;;6.90;99.90;;;;;;4969504;28;20053;-86
2023/03/14 12:28:57;;;;;;;10.13;1.48;;;6.90;99.90;;;;;;4953830;28;20054;-83
2023/03/14 12:31:29;;;;;;;12.75;2.63;;;6.80;99.90;;;;;;4942001;28;20057;-83
2023/03/14 12:34:03;;;;;;;15.75;2.10;;;6.70;99.90;;;;;;4938739;28;20133;-83
2023/03/14 12:36:48;;;;;;;13.43;1.98;;;6.60;99.90;;;;;;4945500;28;20047;-83
2023/03/14 12:39:35;;;;;;;20.35;2.35;;;6.40;99.90;;;;;;4956960;28;20490;-82
2023/03/14 12:42:05;;;;;;;17.45;2.53;;;6.40;99.90;;;;;;4963581;28;20047;-83
2023/03/14 12:44:31;;;;;;;20.13;2.70;;;6.40;99.90;;;;;;4953818;28;20125;-82
2023/03/14 12:46:58;;;;;;;18.77;2.25;;;6.40;99.90;;;;;;4946664;28;20054;-82
2023/03/14 12:49:35;;;;;;;12.38;2.30;;;6.30;99.90;;;;;;4950853;28;20128;-83
2023/03/14 12:52:01;;;;;;;15.90;2.58;;;6.40;99.90;;;;;;4955039;28;20499;-83
2023/03/14 12:54:44;;;;;;;13.20;1.75;;;6.30;99.90;;;;;;4954257;28;20093;-83